Time;durP1;ratioP1;P1;durP2;ratioP2;P2;SDS_P1;SDS_P2;PMS_P1;PMS_P2;Temp;Humidity;BMP_temperature;BMP_pressure;BME280_temperature;BME280_humidity;BME280_pressure;Samples;Min_cycle;Max_cycle;Signal;HPM_P1;HPM_P2
2023/10/28 00:01:17;;;;;;;138.07;98.90;;;;;;;21.26;nan;98781.72;5016443;28;20125;-72
2023/10/28 00:03:47;;;;;;;144.77;98.63;;;;;;;21.19;nan;98778.47;5028571;28;20055;-72
2023/10/28 00:06:16;;;;;;;145.80;106.22;;;;;;;21.15;nan;98777.34;5008730;28;20045;-71
2023/10/28 00:08:45;;;;;;;154.90;108.75;;;;;;;20.98;nan;98777.44;5012761;28;20390;-71
2023/10/28 00:11:19;;;;;;;159.88;113.95;;;;;;;20.92;nan;98775.81;5021608;28;20058;-71
2023/10/28 00:13:48;;;;;;;159.68;114.72;;;;;;;20.97;nan;98776.66;5019233;28;20057;-71
2023/10/28 00:16:18;;;;;;;170.90;116.07;;;;;;;20.99;nan;98784.47;5008696;28;20046;-71
2023/10/28 00:18:49;;;;;;;160.63;116.82;;;;;;;21.12;nan;98778.63;5009640;28;20054;-71
2023/10/28 00:21:18;;;;;;;166.85;115.85;;;;;;;20.82;nan;98786.47;5016302;28;20950;-71
2023/10/28 00:23:48;;;;;;;159.38;115.32;;;;;;;20.71;nan;98785.59;5028778;28;20156;-71
2023/10/28 00:26:17;;;;;;;166.40;116.55;;;;;;;20.94;nan;98789.81;5008845;28;20050;-71
2023/10/28 00:28:47;;;;;;;157.13;113.93;;;;;;;20.92;nan;98792.78;5017794;28;20057;-72
2023/10/28 00:31:21;;;;;;;174.20;125.78;;;;;;;20.77;nan;98787.25;5014152;28;20049;-72
2023/10/28 00:33:51;;;;;;;170.48;122.63;;;;;;;20.82;nan;98789.19;4988019;28;20046;-71
2023/10/28 00:36:21;;;;;;;170.82;121.65;;;;;;;20.74;nan;98786.97;4988862;28;22591;-72
2023/10/28 00:38:52;;;;;;;169.95;120.03;;;;;;;20.88;nan;98788.16;4996549;28;20048;-72
2023/10/28 00:41:22;;;;;;;166.02;119.95;;;;;;;21.01;nan;98795.81;5015738;28;20056;-71
2023/10/28 00:43:52;;;;;;;168.00;118.88;;;;;;;21.01;nan;98793.94;5010834;28;20050;-71
2023/10/28 00:46:22;;;;;;;174.60;124.50;;;;;;;21.05;nan;98796.91;5007499;28;20792;-71
2023/10/28 00:48:53;;;;;;;177.25;124.90;;;;;;;20.99;nan;98800.63;5027032;28;20116;-72
2023/10/28 00:51:22;;;;;;;177.43;125.13;;;;;;;20.97;nan;98800.91;5016733;28;20070;-72
2023/10/28 00:53:52;;;;;;;169.23;123.15;;;;;;;20.92;nan;98806.25;5008006;28;20046;-71
2023/10/28 00:56:22;;;;;;;165.98;122.82;;;;;;;20.77;nan;98807.97;5007926;28;20065;-72
2023/10/28 00:58:53;;;;;;;166.70;121.22;;;;;;;20.86;nan;98806.44;5010787;28;20574;-71
2023/10/28 01:01:22;;;;;;;173.55;126.28;;;;;;;20.96;nan;98803.84;5019608;28;20128;-71
2023/10/28 01:03:52;;;;;;;176.15;124.00;;;;;;;21.16;nan;98812.09;5026568;28;20049;-70
2023/10/28 01:06:21;;;;;;;162.88;124.07;;;;;;;21.00;nan;98800.38;5022195;28;20104;-71
2023/10/28 01:08:51;;;;;;;175.65;125.78;;;;;;;21.13;nan;98811.81;5023118;28;20410;-72
2023/10/28 01:11:21;;;;;;;173.10;122.95;;;;;;;21.03;nan;98813.31;5010814;28;20099;-73
2023/10/28 01:13:50;;;;;;;165.48;121.00;;;;;;;21.10;nan;98815.81;5009114;28;20074;-71
2023/10/28 01:16:19;;;;;;;159.57;118.18;;;;;;;21.08;nan;98812.53;5004827;28;20077;-71
2023/10/28 01:18:58;;;;;;;159.35;120.88;;;;;;;21.06;nan;98814.69;5010807;28;20053;-71
2023/10/28 01:21:27;;;;;;;153.55;114.82;;;;;;;21.12;nan;98816.34;4984483;28;20055;-71
2023/10/28 01:23:57;;;;;;;166.65;121.53;;;;;;;20.97;nan;98817.06;5006305;28;20046;-71
2023/10/28 01:26:28;;;;;;;151.77;113.93;;;;;;;20.98;nan;98828.63;5006535;28;20134;-72
2023/10/28 01:29:00;;;;;;;162.48;118.43;;;;;;;20.89;nan;98819.41;5011070;28;20052;-73
2023/10/28 01:31:30;;;;;;;165.57;120.32;;;;;;;20.71;nan;98825.16;5020119;28;20052;-72
2023/10/28 01:33:59;;;;;;;167.02;119.93;;;;;;;20.97;nan;98824.31;5026844;28;20049;-69
2023/10/28 01:36:29;;;;;;;160.68;115.55;;;;;;;20.86;nan;98833.34;5022020;28;20054;-72
2023/10/28 01:38:59;;;;;;;158.95;117.95;;;;;;;20.78;nan;98847.28;5009575;28;20496;-72
2023/10/28 01:41:29;;;;;;;163.70;117.30;;;;;;;20.76;nan;98844.03;5006787;28;20062;-72
2023/10/28 01:43:58;;;;;;;161.00;116.55;;;;;;;20.67;nan;98849.06;5006588;28;20485;-72
2023/10/28 01:46:30;;;;;;;165.07;121.25;;;;;;;20.63;nan;98845.25;5019450;28;20522;-72
2023/10/28 01:49:00;;;;;;;163.60;120.35;;;;;;;20.80;nan;98853.25;5018112;28;20473;-72
2023/10/28 01:51:29;;;;;;;158.60;118.05;;;;;;;20.72;nan;98854.50;5024885;28;20604;-74
2023/10/28 01:53:59;;;;;;;167.52;118.10;;;;;;;20.76;nan;98855.59;5018204;28;20069;-72
2023/10/28 01:56:29;;;;;;;172.95;119.82;;;;;;;20.91;nan;98861.16;4989289;28;20057;-72
2023/10/28 01:59:01;;;;;;;170.52;119.53;;;;;;;21.21;nan;98862.50;5009180;28;20064;-72
2023/10/28 02:01:31;;;;;;;165.18;124.38;;;;;;;21.31;nan;98860.72;4993556;28;20066;-71
2023/10/28 02:04:06;;;;;;;171.02;120.88;;;;;;;21.23;nan;98863.06;5022327;28;20046;-72
2023/10/28 02:06:35;;;;;;;155.10;115.10;;;;;;;21.34;nan;98868.28;5011847;28;20533;-72
2023/10/28 02:09:04;;;;;;;160.82;116.85;;;;;;;21.42;nan;98862.41;5022351;28;20060;-72
2023/10/28 02:11:38;;;;;;;153.27;117.80;;;;;;;21.45;nan;98872.69;5014231;28;20065;-71
2023/10/28 02:14:11;;;;;;;146.00;113.63;;;;;;;21.32;nan;98880.38;5000328;28;20045;-72
2023/10/28 02:16:42;;;;;;;153.20;116.70;;;;;;;21.51;nan;98877.00;5005013;28;20060;-71
2023/10/28 02:19:11;;;;;;;159.07;117.63;;;;;;;21.61;nan;98884.38;5008666;28;20152;-71
2023/10/28 02:21:40;;;;;;;154.27;117.10;;;;;;;21.78;nan;98893.09;5009612;28;20357;-72
2023/10/28 02:24:10;;;;;;;160.40;115.78;;;;;;;21.93;nan;98892.44;5015426;28;20042;-71
2023/10/28 02:26:39;;;;;;;158.93;117.72;;;;;;;22.03;nan;98899.75;4988646;28;20138;-72
2023/10/28 02:29:09;;;;;;;153.43;114.63;;;;;;;21.97;nan;98892.72;5021297;28;20541;-71
2023/10/28 02:31:39;;;;;;;153.90;114.30;;;;;;;22.02;nan;98901.66;5007007;28;20645;-71
2023/10/28 02:34:11;;;;;;;149.68;117.72;;;;;;;22.24;nan;98906.88;5011727;28;20050;-72
2023/10/28 02:36:42;;;;;;;148.13;114.28;;;;;;;22.33;nan;98905.31;5006284;28;20049;-72
2023/10/28 02:39:12;;;;;;;151.00;114.80;;;;;;;22.27;nan;98915.25;5019675;28;20057;-71
2023/10/28 02:41:41;;;;;;;138.82;111.43;;;;;;;22.32;nan;98919.88;5022556;28;20049;-72
2023/10/28 02:44:10;;;;;;;149.68;118.57;;;;;;;22.42;nan;98921.81;5013503;28;20046;-73
2023/10/28 02:46:40;;;;;;;142.18;113.63;;;;;;;22.47;nan;98932.63;5025388;28;20075;-72
2023/10/28 02:49:09;;;;;;;147.48;112.78;;;;;;;22.67;nan;98932.69;5024913;28;20049;-72
2023/10/28 02:51:39;;;;;;;151.80;112.55;;;;;;;22.98;nan;98934.41;5005702;28;20673;-73
2023/10/28 02:54:11;;;;;;;141.48;108.40;;;;;;;22.77;nan;98936.28;5013643;28;20046;-72
2023/10/28 02:56:41;;;;;;;141.18;110.65;;;;;;;22.62;nan;98951.56;5022114;28;20124;-72
2023/10/28 02:59:12;;;;;;;138.45;109.15;;;;;;;22.78;nan;98945.19;5008063;28;20111;-72
2023/10/28 03:01:42;;;;;;;140.38;110.28;;;;;;;22.83;nan;98959.53;4993244;28;20076;-72
2023/10/28 03:04:12;;;;;;;146.65;112.95;;;;;;;22.70;nan;98959.22;5003176;28;20037;-72
2023/10/28 03:06:41;;;;;;;153.00;114.35;;;;;;;22.82;nan;98957.09;5006061;28;20073;-72
2023/10/28 03:09:10;;;;;;;141.38;114.72;;;;;;;23.15;nan;98959.31;5007176;28;20433;-71
2023/10/28 03:11:39;;;;;;;142.07;110.72;;;;;;;23.64;nan;98958.84;5006226;28;20145;-71
2023/10/28 03:14:09;;;;;;;146.07;114.55;;;;;;;23.84;nan;98964.25;5007842;28;20129;-71
2023/10/28 03:16:40;;;;;;;161.23;119.35;;;;;;;23.68;nan;98963.44;5006068;28;20046;-71
2023/10/28 03:19:11;;;;;;;163.25;121.47;;;;;;;23.50;nan;98969.38;5004269;28;20362;-71
2023/10/28 03:21:40;;;;;;;157.07;120.25;;;;;;;23.50;nan;98971.31;5005098;28;20057;-71
2023/10/28 03:24:09;;;;;;;156.23;121.65;;;;;;;23.61;nan;98967.50;5007466;28;20708;-72
2023/10/28 03:26:39;;;;;;;169.35;126.85;;;;;;;23.59;nan;98970.47;5004293;28;20865;-72
2023/10/28 03:29:08;;;;;;;173.95;131.55;;;;;;;23.59;nan;98978.56;5005119;28;20108;-72
2023/10/28 03:31:38;;;;;;;167.38;130.75;;;;;;;23.76;nan;98974.81;5015995;28;20053;-72
2023/10/28 03:34:08;;;;;;;160.95;132.88;;;;;;;23.87;nan;98971.81;5015199;28;20681;-72
2023/10/28 03:36:37;;;;;;;170.77;131.82;;;;;;;24.17;nan;98981.81;5005232;28;20140;-73
2023/10/28 03:39:10;;;;;;;173.60;132.45;;;;;;;24.55;nan;98981.19;5004033;28;20127;-72
2023/10/28 03:41:39;;;;;;;197.90;138.63;;;;;;;24.29;nan;98984.25;5005468;28;20762;-73
2023/10/28 03:44:08;;;;;;;175.68;136.43;;;;;;;24.39;nan;98979.59;5005518;28;20287;-73
2023/10/28 03:46:38;;;;;;;195.18;138.73;;;;;;;24.30;nan;98981.22;5005671;28;20355;-73
2023/10/28 03:49:07;;;;;;;177.73;137.25;;;;;;;24.28;nan;98982.59;5005634;28;20060;-73
2023/10/28 03:51:38;;;;;;;183.27;138.75;;;;;;;24.80;nan;98982.97;5009186;28;20056;-72
2023/10/28 03:54:07;;;;;;;185.07;135.57;;;;;;;25.00;nan;98988.28;5013483;28;20060;-73
2023/10/28 03:56:37;;;;;;;175.85;134.48;;;;;;;25.08;nan;98991.53;5005498;28;20137;-73
2023/10/28 03:59:06;;;;;;;178.60;131.73;;;;;;;25.31;nan;98991.66;5004663;28;20120;-72
2023/10/28 04:01:35;;;;;;;172.27;133.15;;;;;;;25.25;nan;98997.38;5005752;28;20045;-73
2023/10/28 04:04:07;;;;;;;177.82;138.18;;;;;;;24.79;nan;98999.47;5012320;28;20140;-72
2023/10/28 04:06:37;;;;;;;170.48;137.35;;;;;;;24.70;nan;98993.84;5024440;28;20111;-73
2023/10/28 04:09:07;;;;;;;179.10;137.18;;;;;;;24.53;nan;98991.47;5024257;28;20569;-73
2023/10/28 04:11:37;;;;;;;175.98;137.02;;;;;;;24.81;nan;98997.31;5024138;28;20128;-73
2023/10/28 04:14:07;;;;;;;183.88;137.70;;;;;;;24.92;nan;98994.31;5011436;28;20060;-71
2023/10/28 04:16:36;;;;;;;166.43;133.57;;;;;;;24.74;nan;99000.31;5003263;28;20042;-71
2023/10/28 04:19:12;;;;;;;160.73;129.55;;;;;;;25.09;nan;98998.56;5004327;28;20064;-72
2023/10/28 04:21:42;;;;;;;162.38;125.18;;;;;;;24.98;nan;98998.63;4997090;28;20104;-71
2023/10/28 04:24:11;;;;;;;153.90;126.05;;;;;;;25.20;nan;99000.13;5012431;28;20061;-72
2023/10/28 04:26:40;;;;;;;162.10;127.32;;;;;;;25.32;nan;99000.59;5024500;28;20049;-72
2023/10/28 04:29:09;;;;;;;154.98;123.97;;;;;;;25.46;nan;99001.59;5006490;28;20526;-71
2023/10/28 04:31:38;;;;;;;157.82;122.35;;;;;;;25.69;nan;99003.63;5023988;28;20152;-72
2023/10/28 04:34:10;;;;;;;187.52;124.13;;;;;;;25.27;nan;99003.34;5016792;28;20068;-73
2023/10/28 04:36:39;;;;;;;155.63;118.55;;;;;;;25.35;nan;99013.59;5005224;28;20050;-75
2023/10/28 04:39:08;;;;;;;151.07;119.68;;;;;;;25.56;nan;99006.16;5006120;28;20042;-75
2023/10/28 04:41:38;;;;;;;147.30;117.43;;;;;;;25.56;nan;99014.31;5008637;28;20057;-75
2023/10/28 04:44:13;;;;;;;142.40;117.28;;;;;;;25.44;nan;99018.16;5013551;28;20737;-75
2023/10/28 04:46:42;;;;;;;145.60;118.57;;;;;;;25.57;nan;99019.44;5027662;28;20132;-76
2023/10/28 04:49:13;;;;;;;136.55;115.43;;;;;;;25.59;nan;99025.38;5009265;28;20125;-75
2023/10/28 04:51:42;;;;;;;139.00;113.60;;;;;;;25.39;nan;99022.78;5012062;28;20465;-76
2023/10/28 04:54:11;;;;;;;143.77;112.90;;;;;;;25.53;nan;99020.28;5010117;28;20057;-76
2023/10/28 04:56:40;;;;;;;135.65;113.32;;;;;;;25.64;nan;99024.53;5027782;28;20038;-76
2023/10/28 04:59:10;;;;;;;158.25;121.57;;;;;;;25.22;nan;99019.66;5011615;28;20064;-75
2023/10/28 05:01:39;;;;;;;156.27;122.03;;;;;;;25.30;nan;99021.75;5013648;28;20123;-74
2023/10/28 05:04:09;;;;;;;144.90;121.30;;;;;;;25.41;nan;99026.03;5014462;28;20057;-74
2023/10/28 05:06:40;;;;;;;144.30;119.25;;;;;;;25.66;nan;99020.47;5009061;28;20056;-75
2023/10/28 05:09:09;;;;;;;135.10;110.78;;;;;;;25.54;nan;99022.72;5007238;28;20476;-74
2023/10/28 05:11:38;;;;;;;133.95;110.47;;;;;;;25.84;nan;99024.41;5013474;28;20077;-74
2023/10/28 05:14:10;;;;;;;135.75;109.45;;;;;;;25.91;nan;99022.97;5015361;28;20054;-74
2023/10/28 05:16:40;;;;;;;130.77;105.00;;;;;;;25.99;nan;99018.00;5006748;28;20042;-74
2023/10/28 05:19:11;;;;;;;139.73;107.15;;;;;;;26.05;nan;99027.75;5006028;28;20050;-74
2023/10/28 05:21:40;;;;;;;129.20;103.25;;;;;;;26.12;nan;99026.31;5006701;28;20754;-74
2023/10/28 05:24:09;;;;;;;129.15;103.53;;;;;;;26.21;nan;99016.47;5006869;28;20053;-75
2023/10/28 05:26:38;;;;;;;132.88;102.60;;;;;;;26.09;nan;99024.19;5006218;28;20053;-74
2023/10/28 05:29:08;;;;;;;118.97;101.07;;;;;;;26.00;nan;99025.06;5004510;28;20046;-75
2023/10/28 05:31:38;;;;;;;124.63;102.03;;;;;;;25.97;nan;99017.50;5006876;28;20042;-75
2023/10/28 05:34:07;;;;;;;122.65;100.85;;;;;;;25.83;nan;99015.44;5006801;28;20521;-74
2023/10/28 05:36:36;;;;;;;128.45;104.88;;;;;;;25.67;nan;99019.34;5006417;28;20041;-75
2023/10/28 05:39:07;;;;;;;126.93;103.63;;;;;;;25.74;nan;99010.91;4998369;28;20049;-71
2023/10/28 05:41:39;;;;;;;125.65;102.80;;;;;;;25.72;nan;99015.78;4998137;28;20164;-71
2023/10/28 05:44:08;;;;;;;126.60;100.97;;;;;;;25.68;nan;99018.28;5002073;28;20046;-71
2023/10/28 05:46:38;;;;;;;129.65;104.25;;;;;;;25.59;nan;99017.25;5001884;28;20060;-70
2023/10/28 05:49:07;;;;;;;128.52;101.35;;;;;;;25.58;nan;99021.06;5004051;28;20139;-70
2023/10/28 05:51:36;;;;;;;123.60;103.43;;;;;;;25.61;nan;99004.22;5001320;28;20054;-70
2023/10/28 05:54:06;;;;;;;117.18;98.65;;;;;;;25.65;nan;99002.56;4993565;28;20057;-69
2023/10/28 05:56:35;;;;;;;113.18;94.80;;;;;;;25.77;nan;99007.63;5003139;28;20046;-75
2023/10/28 05:59:05;;;;;;;106.47;93.25;;;;;;;26.02;nan;99006.59;5004920;28;20054;-67
2023/10/28 06:01:35;;;;;;;111.25;90.75;;;;;;;26.29;nan;99002.28;5007277;28;20613;-70
2023/10/28 06:04:06;;;;;;;95.65;84.53;;;;;;;26.59;nan;98995.72;5009417;28;20107;-70
2023/10/28 06:06:36;;;;;;;97.63;77.82;;;;;;;26.78;nan;98991.13;5015143;28;20136;-69
2023/10/28 06:09:16;;;;;;;87.45;76.43;;;;;;;26.93;nan;98994.78;5000223;28;20049;-67
2023/10/28 06:11:46;;;;;;;89.00;72.93;;;;;;;27.14;nan;98977.88;5007288;28;20137;-70
2023/10/28 06:14:16;;;;;;;93.00;74.45;;;;;;;27.31;nan;98985.53;5013339;28;20382;-71
2023/10/28 06:16:46;;;;;;;92.13;71.30;;;;;;;27.52;nan;98983.34;5006518;28;20143;-70
2023/10/28 06:19:17;;;;;;;100.47;72.78;;;;;;;27.77;nan;98982.13;5004830;28;20041;-70
2023/10/28 06:21:46;;;;;;;82.00;68.45;;;;;;;27.88;nan;98975.41;5000770;28;20061;-71
2023/10/28 06:24:19;;;;;;;88.50;69.00;;;;;;;27.97;nan;98976.34;5004975;28;20050;-69
2023/10/28 06:26:48;;;;;;;91.38;68.50;;;;;;;28.10;nan;98964.69;5006434;28;20125;-70
2023/10/28 06:29:23;;;;;;;88.10;70.20;;;;;;;28.15;nan;98972.75;4970245;28;20056;-72
2023/10/28 06:31:52;;;;;;;82.57;62.83;;;;;;;28.22;nan;98970.47;5005896;28;20049;-71
2023/10/28 06:34:22;;;;;;;71.75;58.35;;;;;;;28.25;nan;98967.13;5004420;28;20314;-70
2023/10/28 06:36:51;;;;;;;74.22;56.60;;;;;;;28.15;nan;98961.06;5002515;28;20054;-69
2023/10/28 06:39:21;;;;;;;71.03;54.58;;;;;;;27.94;nan;98960.59;5005062;28;20053;-71
2023/10/28 06:41:51;;;;;;;73.28;54.40;;;;;;;27.74;nan;98955.50;4988153;28;20963;-73
2023/10/28 06:44:24;;;;;;;69.22;52.85;;;;;;;27.58;nan;98953.03;5004908;28;20506;-73
2023/10/28 06:46:55;;;;;;;72.13;53.53;;;;;;;27.51;nan;98951.81;4999260;28;20054;-69
2023/10/28 06:49:24;;;;;;;63.13;53.60;;;;;;;27.47;nan;98946.13;4656017;28;9999882;-69
2023/10/28 06:51:54;;;;;;;72.38;55.60;;;;;;;27.36;nan;98944.66;5003509;28;20045;-69
2023/10/28 06:54:24;;;;;;;59.22;50.47;;;;;;;27.24;nan;98936.13;5001612;28;20053;-68
2023/10/28 06:56:53;;;;;;;61.60;51.33;;;;;;;27.21;nan;98943.00;5002605;28;20057;-69
2023/10/28 06:59:23;;;;;;;66.75;51.42;;;;;;;27.14;nan;98931.66;4994390;28;20129;-69
2023/10/28 07:01:53;;;;;;;63.28;51.88;;;;;;;27.10;nan;98932.53;5003872;28;20053;-69
2023/10/28 07:04:26;;;;;;;66.32;50.78;;;;;;;27.07;nan;98919.53;5000321;28;20115;-68
2023/10/28 07:06:55;;;;;;;63.40;49.70;;;;;;;27.06;nan;98928.78;4997966;28;20057;-68
2023/10/28 07:09:24;;;;;;;63.60;50.28;;;;;;;26.99;nan;98922.94;4993422;28;20045;-66
2023/10/28 07:12:00;;;;;;;63.10;49.80;;;;;;;26.95;nan;98921.91;4996546;28;20042;-67
2023/10/28 07:14:29;;;;;;;61.63;48.67;;;;;;;26.94;nan;98914.84;5000057;28;20533;-66
2023/10/28 07:16:59;;;;;;;62.63;47.40;;;;;;;26.91;nan;98915.44;4999530;28;20063;-67
2023/10/28 07:19:29;;;;;;;66.88;50.15;;;;;;;26.87;nan;98914.38;5001471;28;20042;-67
2023/10/28 07:22:06;;;;;;;75.35;53.60;;;;;;;26.82;nan;98916.03;5004971;28;20049;-69
2023/10/28 07:24:35;;;;;;;72.70;55.70;;;;;;;26.78;nan;98906.84;5008165;28;20480;-66
2023/10/28 07:27:05;;;;;;;73.45;53.88;;;;;;;26.78;nan;98901.41;5008079;28;20042;-66
2023/10/28 07:29:34;;;;;;;66.18;53.33;;;;;;;26.88;nan;98899.69;5005693;28;20448;-66
2023/10/28 07:32:05;;;;;;;64.70;50.65;;;;;;;26.93;nan;98903.16;5008998;28;20061;-65
2023/10/28 07:34:34;;;;;;;57.47;48.80;;;;;;;27.00;nan;98897.34;5016778;28;20092;-65
2023/10/28 07:37:03;;;;;;;64.30;50.25;;;;;;;27.11;nan;98893.38;5004299;28;20148;-66
2023/10/28 07:39:33;;;;;;;64.63;51.97;;;;;;;27.23;nan;98891.81;5001264;28;20057;-64
2023/10/28 07:42:02;;;;;;;64.10;53.13;;;;;;;27.38;nan;98888.03;5002454;28;20529;-64
2023/10/28 07:44:32;;;;;;;67.72;54.22;;;;;;;27.40;nan;98877.66;5011850;28;20046;-68
2023/10/28 07:47:01;;;;;;;66.55;51.85;;;;;;;27.60;nan;98874.63;5007130;28;20046;-68
2023/10/28 07:49:30;;;;;;;61.45;49.67;;;;;;;27.76;nan;98871.63;5004461;28;20056;-66
2023/10/28 07:52:00;;;;;;;63.85;49.58;;;;;;;27.89;nan;98868.91;5002460;28;20655;-68
2023/10/28 07:54:29;;;;;;;70.45;54.33;;;;;;;27.89;nan;98865.38;5006138;28;20045;-67
2023/10/28 07:57:00;;;;;;;64.97;49.78;;;;;;;27.92;nan;98857.44;5007983;28;20046;-68
2023/10/28 07:59:29;;;;;;;65.22;48.08;;;;;;;27.97;nan;98846.41;5005439;28;20156;-68
2023/10/28 08:02:00;;;;;;;58.20;46.58;;;;;;;28.06;nan;98843.78;5004230;28;20042;-69
2023/10/28 08:04:29;;;;;;;56.15;48.58;;;;;;;28.09;nan;98840.50;4998142;28;20053;-68
2023/10/28 08:06:59;;;;;;;62.00;47.78;;;;;;;28.09;nan;98837.75;5003858;28;20050;-66
2023/10/28 08:09:28;;;;;;;65.35;49.70;;;;;;;28.00;nan;98837.66;5006367;28;20065;-68
2023/10/28 08:11:58;;;;;;;62.97;48.70;;;;;;;28.07;nan;98834.53;5005726;28;20078;-68
2023/10/28 08:14:28;;;;;;;58.67;49.45;;;;;;;28.08;nan;98827.97;5005421;28;20443;-67
2023/10/28 08:16:58;;;;;;;64.57;52.17;;;;;;;28.10;nan;98823.06;5008769;28;20069;-65
2023/10/28 08:19:29;;;;;;;61.70;51.63;;;;;;;28.15;nan;98824.88;5007703;28;20123;-66
2023/10/28 08:21:59;;;;;;;64.78;52.92;;;;;;;28.16;nan;98818.31;5010788;28;20116;-67
2023/10/28 08:24:29;;;;;;;68.43;51.60;;;;;;;28.16;nan;98816.38;5007658;28;20053;-66
2023/10/28 08:26:58;;;;;;;66.60;50.55;;;;;;;28.11;nan;98809.13;5005498;28;20377;-67
2023/10/28 08:29:27;;;;;;;65.45;50.97;;;;;;;28.13;nan;98803.41;5005595;28;20064;-68
2023/10/28 08:31:57;;;;;;;69.57;52.35;;;;;;;28.05;nan;98799.44;5012601;28;20062;-67
2023/10/28 08:34:26;;;;;;;63.85;50.67;;;;;;;28.05;nan;98804.88;5012159;28;20049;-68
2023/10/28 08:36:56;;;;;;;61.97;47.15;;;;;;;27.98;nan;98798.22;5016028;28;20053;-65
2023/10/28 08:39:26;;;;;;;53.03;45.55;;;;;;;27.91;nan;98792.38;5013479;28;20049;-68
2023/10/28 08:41:56;;;;;;;55.93;44.40;;;;;;;27.89;nan;98800.03;4667963;28;10000160;-70
2023/10/28 08:44:29;;;;;;;53.90;43.55;;;;;;;27.83;nan;98799.34;5015471;28;20366;-70
2023/10/28 08:46:59;;;;;;;54.97;42.88;;;;;;;27.76;nan;98789.97;5018656;28;20080;-69
2023/10/28 08:49:30;;;;;;;46.72;40.53;;;;;;;27.72;nan;98792.47;5015893;28;20045;-69
2023/10/28 08:52:02;;;;;;;47.63;39.42;;;;;;;27.69;nan;98787.66;5018076;28;20133;-67
2023/10/28 08:54:34;;;;;;;48.05;38.78;;;;;;;27.63;nan;98777.97;5013847;28;20141;-67
2023/10/28 08:57:04;;;;;;;46.83;39.15;;;;;;;27.59;nan;98779.69;5017042;28;20069;-68
2023/10/28 08:59:33;;;;;;;45.72;37.53;;;;;;;27.53;nan;98787.13;5015845;28;20077;-67
2023/10/28 09:02:08;;;;;;;50.28;38.85;;;;;;;27.42;nan;98773.97;5018503;28;20053;-68
2023/10/28 09:04:37;;;;;;;49.65;38.15;;;;;;;27.45;nan;98778.81;5007283;28;20046;-67
2023/10/28 09:07:07;;;;;;;43.45;37.13;;;;;;;27.44;nan;98772.56;5006757;28;20054;-68
2023/10/28 09:09:39;;;;;;;44.03;36.53;;;;;;;27.47;nan;98779.34;5013437;28;20046;-68
2023/10/28 09:12:12;;;;;;;47.58;39.67;;;;;;;27.47;nan;98772.00;5004542;28;20053;-67
2023/10/28 09:14:47;;;;;;;47.15;38.05;;;;;;;27.48;nan;98767.38;5013727;28;21602;-68
2023/10/28 09:17:20;;;;;;;51.53;37.55;;;;;;;27.48;nan;98765.47;5002030;28;20573;-68
2023/10/28 09:19:54;;;;;;;44.90;36.70;;;;;;;27.46;nan;98764.13;5007221;28;20042;-68
2023/10/28 09:22:24;;;;;;;45.33;38.15;;;;;;;27.38;nan;98756.66;5009156;28;20596;-68
2023/10/28 09:24:54;;;;;;;45.13;37.92;;;;;;;27.32;nan;98753.22;5006511;28;20137;-69
2023/10/28 09:27:23;;;;;;;42.92;37.13;;;;;;;27.28;nan;98752.19;4998730;28;20060;-69
2023/10/28 09:30:03;;;;;;;47.03;37.58;;;;;;;27.31;nan;98743.44;5004108;28;20115;-69
2023/10/28 09:32:33;;;;;;;44.65;37.67;;;;;;;27.32;nan;98742.34;5009896;28;20410;-68
2023/10/28 09:35:07;;;;;;;45.28;38.63;;;;;;;27.33;nan;98737.69;5002449;28;20038;-68
2023/10/28 09:37:41;;;;;;;48.40;40.42;;;;;;;27.32;nan;98736.88;5003072;28;20136;-69
2023/10/28 09:40:12;;;;;;;49.53;39.75;;;;;;;27.30;nan;98736.41;5004814;28;20050;-67
2023/10/28 09:42:43;;;;;;;56.33;40.85;;;;;;;27.28;nan;98738.59;4659324;28;10000438;-67
2023/10/28 09:45:13;;;;;;;52.90;42.00;;;;;;;27.28;nan;98738.59;5003676;28;20126;-70
2023/10/28 09:47:54;;;;;;;47.35;40.53;;;;;;;27.27;nan;98740.50;5006414;28;20041;-71
2023/10/28 09:50:27;;;;;;;50.35;42.35;;;;;;;27.26;nan;98738.91;5000264;28;20041;-71
2023/10/28 09:52:58;;;;;;;51.67;42.45;;;;;;;27.22;nan;98740.59;4647797;28;10000208;-69
2023/10/28 09:55:36;;;;;;;54.28;42.97;;;;;;;27.17;nan;98729.81;5005001;28;20057;-69
2023/10/28 09:58:26;;;;;;;59.35;44.08;;;;;;;27.08;nan;98731.63;5007208;28;20574;-68
2023/10/28 10:01:07;;;;;;;54.08;42.50;;;;;;;27.06;nan;98733.84;4993600;28;20386;-69
2023/10/28 10:03:55;;;;;;;55.85;43.22;;;;;;;27.02;nan;98732.00;5007572;28;21067;-69
2023/10/28 10:06:25;;;;;;;58.33;42.58;;;;;;;26.98;nan;98726.38;4988404;28;20057;-70
2023/10/28 10:08:55;;;;;;;50.17;41.92;;;;;;;26.95;nan;98718.81;4656738;28;10000540;-70
2023/10/28 10:11:26;;;;;;;55.80;42.97;;;;;;;26.92;nan;98721.31;5003227;28;20454;-70
2023/10/28 10:14:06;;;;;;;53.13;42.45;;;;;;;26.88;nan;98709.41;5012925;28;20046;-69
2023/10/28 10:17:00;;;;;;;50.75;40.50;;;;;;;26.86;nan;98706.22;5017280;28;20127;-70
2023/10/28 10:19:36;;;;;;;51.50;40.20;;;;;;;26.85;nan;98710.84;5003599;28;20046;-71
2023/10/28 10:22:09;;;;;;;53.90;42.78;;;;;;;26.86;nan;98708.94;5014295;28;20752;-72
2023/10/28 10:24:49;;;;;;;55.70;42.33;;;;;;;26.86;nan;98703.50;4995817;28;20088;-72
2023/10/28 10:27:37;;;;;;;47.03;39.08;;;;;;;26.85;nan;98707.28;4997730;28;20145;-72
2023/10/28 10:30:09;;;;;;;53.95;40.65;;;;;;;26.87;nan;98703.19;5009524;28;20046;-70
2023/10/28 10:32:56;;;;;;;43.90;37.60;;;;;;;26.87;nan;98707.81;5005714;28;20132;-69
2023/10/28 10:35:33;;;;;;;42.95;37.53;;;;;;;26.85;nan;98712.72;5005654;28;20050;-69
2023/10/28 10:38:10;;;;;;;46.30;36.88;;;;;;;26.83;nan;98715.72;5004005;28;20291;-70
2023/10/28 10:40:52;;;;;;;46.85;36.63;;;;;;;26.80;nan;98713.59;5006556;28;20382;-70
2023/10/28 10:43:22;;;;;;;40.35;35.10;;;;;;;26.78;nan;98711.19;5006023;28;20133;-71
2023/10/28 10:45:53;;;;;;;41.42;33.60;;;;;;;26.74;nan;98712.88;5011006;28;20504;-71
2023/10/28 10:48:27;;;;;;;41.20;33.78;;;;;;;26.73;nan;98713.19;4994205;28;20786;-72
2023/10/28 10:50:57;;;;;;;42.55;33.72;;;;;;;26.69;nan;98714.88;5006831;28;20073;-73
2023/10/28 10:53:26;;;;;;;39.03;32.45;;;;;;;26.66;nan;98723.63;5009153;28;20766;-70
2023/10/28 10:55:56;;;;;;;48.35;36.28;;;;;;;26.61;nan;98727.22;5008464;28;20556;-70
2023/10/28 10:58:25;;;;;;;37.42;33.33;;;;;;;26.55;nan;98725.72;5002862;28;20054;-70
2023/10/28 11:00:56;;;;;;;43.80;35.13;;;;;;;26.48;nan;98721.72;5002632;28;20046;-71
2023/10/28 11:03:28;;;;;;;41.22;34.55;;;;;;;26.40;nan;98728.66;5002217;28;20438;-68
2023/10/28 11:06:10;;;;;;;45.78;33.03;;;;;;;26.32;nan;98730.13;5001150;28;20038;-70
2023/10/28 11:08:40;;;;;;;42.50;34.67;;;;;;;26.28;nan;98718.25;5010796;28;20061;-69
2023/10/28 11:11:13;;;;;;;40.20;33.35;;;;;;;26.24;nan;98722.66;5014172;28;20049;-69
2023/10/28 11:13:45;;;;;;;40.40;33.60;;;;;;;26.19;nan;98722.69;5014325;28;20142;-69
2023/10/28 11:16:28;;;;;;;42.75;33.22;;;;;;;26.15;nan;98713.53;5003985;28;20524;-68
2023/10/28 11:18:59;;;;;;;43.13;36.40;;;;;;;26.11;nan;98719.81;5011715;28;20132;-68
2023/10/28 11:21:31;;;;;;;47.60;34.88;;;;;;;26.07;nan;98718.81;5007140;28;20050;-68
2023/10/28 11:24:01;;;;;;;44.63;35.55;;;;;;;26.03;nan;98718.56;5006928;28;20049;-68
2023/10/28 11:26:31;;;;;;;44.40;35.53;;;;;;;25.99;nan;98724.84;5004579;28;20057;-69
2023/10/28 11:29:01;;;;;;;41.30;33.75;;;;;;;25.92;nan;98726.03;5005141;28;20045;-68
2023/10/28 11:31:31;;;;;;;46.15;35.33;;;;;;;25.90;nan;98733.66;5015802;28;20046;-67
2023/10/28 11:34:04;;;;;;;48.08;37.22;;;;;;;25.86;nan;98737.25;5012122;28;20137;-69
2023/10/28 11:36:34;;;;;;;44.40;36.22;;;;;;;25.80;nan;98735.72;4653800;28;10000498;-69
2023/10/28 11:39:09;;;;;;;51.05;36.47;;;;;;;25.77;nan;98734.38;4986017;28;20156;-69
2023/10/28 11:41:39;;;;;;;62.20;39.40;;;;;;;25.79;nan;98732.19;4998996;28;20153;-68